createdAt,value
2019-05-25T00:00:55.793Z,7.37
2019-05-25T00:03:46.031Z,7.50
2019-05-25T00:06:36.175Z,7.20
2019-05-25T00:09:26.109Z,7.80
2019-05-25T00:12:16.199Z,7.43
2019-05-25T00:15:06.953Z,7.17
2019-05-25T00:17:57.209Z,7.63
2019-05-25T00:20:47.704Z,7.20
2019-05-25T00:23:38.021Z,7.57
2019-05-25T00:26:29.327Z,8.00
2019-05-25T00:29:19.647Z,8.00
2019-05-25T00:32:09.882Z,8.33
2019-05-25T00:35:00.231Z,8.13
2019-05-25T00:37:50.473Z,8.53
2019-05-25T00:40:40.776Z,7.83
2019-05-25T00:43:31.088Z,7.97
2019-05-25T00:46:21.129Z,7.50
2019-05-25T00:49:11.720Z,7.87
2019-05-25T00:52:01.898Z,7.13
2019-05-25T00:54:52.232Z,7.03
2019-05-25T00:57:42.250Z,7.10
2019-05-25T01:00:32.492Z,7.17
2019-05-25T01:03:22.625Z,7.30
2019-05-25T01:06:13.297Z,7.33
2019-05-25T01:09:03.623Z,7.63
2019-05-25T01:11:53.963Z,7.63
2019-05-25T01:14:44.144Z,7.90
2019-05-25T01:17:34.335Z,8.40
2019-05-25T01:20:25.840Z,7.63
2019-05-25T01:23:15.946Z,7.60
2019-05-25T01:26:07.175Z,7.17
2019-05-25T01:28:57.448Z,7.53
2019-05-25T01:31:47.677Z,6.87
2019-05-25T01:34:37.925Z,6.97
2019-05-25T01:37:28.134Z,6.80
2019-05-25T01:40:19.498Z,6.73
2019-05-25T01:43:09.721Z,6.80
2019-05-25T01:46:00.050Z,6.80
2019-05-25T01:48:50.423Z,6.40
2019-05-25T01:51:40.986Z,6.67
2019-05-25T01:54:31.307Z,6.63
2019-05-25T01:57:21.733Z,6.53
2019-05-25T02:00:11.925Z,6.77
2019-05-25T02:03:02.407Z,6.67
2019-05-25T02:05:52.381Z,7.07
2019-05-25T02:08:42.612Z,7.00
2019-05-25T02:11:32.982Z,6.60
2019-05-25T02:14:22.976Z,6.70
2019-05-25T02:17:13.224Z,6.87
2019-05-25T02:20:03.434Z,7.00
2019-05-25T02:22:53.748Z,7.43
2019-05-25T02:25:43.728Z,7.20
2019-05-25T02:28:33.979Z,6.57
2019-05-25T02:31:24.169Z,7.20
2019-05-25T02:34:14.504Z,7.13
2019-05-25T02:37:04.837Z,7.00
2019-05-25T02:39:55.060Z,6.53
2019-05-25T02:42:45.329Z,6.60
2019-05-25T02:45:35.802Z,7.00
2019-05-25T02:48:26.044Z,6.77
2019-05-25T02:51:16.257Z,6.40
2019-05-25T02:54:06.596Z,6.93
2019-05-25T02:56:56.807Z,6.47
2019-05-25T02:59:47.121Z,7.20
2019-05-25T03:02:37.165Z,6.67
2019-05-25T03:05:27.432Z,7.23
2019-05-25T03:08:17.394Z,7.27
2019-05-25T03:11:07.721Z,7.13
2019-05-25T03:13:57.899Z,7.27
2019-05-25T03:16:48.631Z,7.23
2019-05-25T03:19:38.527Z,7.47
2019-05-25T03:22:28.567Z,7.73
2019-05-25T03:25:18.848Z,7.63
2019-05-25T03:28:09.120Z,7.80
2019-05-25T03:30:59.561Z,7.90
2019-05-25T03:33:49.839Z,7.70
2019-05-25T03:36:39.902Z,7.83
2019-05-25T03:39:30.087Z,7.53
2019-05-25T03:42:20.243Z,7.80
2019-05-25T03:45:10.524Z,7.20
2019-05-25T03:48:00.522Z,7.40
2019-05-25T03:50:50.919Z,7.30
2019-05-25T03:53:41.197Z,6.60
2019-05-25T03:56:31.251Z,7.03
2019-05-25T03:59:21.576Z,7.10
2019-05-25T04:02:11.892Z,7.13
2019-05-25T04:05:02.251Z,6.50
2019-05-25T04:07:52.747Z,6.20
2019-05-25T04:10:43.143Z,6.47
2019-05-25T04:13:33.434Z,6.60
2019-05-25T04:16:23.628Z,6.13
2019-05-25T04:19:13.960Z,6.13
2019-05-25T04:22:04.251Z,6.03
2019-05-25T04:24:54.290Z,5.90
2019-05-25T04:27:45.155Z,5.33
2019-05-25T04:30:36.043Z,5.60
2019-05-25T04:33:26.917Z,5.20
2019-05-25T04:36:17.817Z,5.40
2019-05-25T04:39:09.002Z,5.47
2019-05-25T04:42:00.051Z,4.83
2019-05-25T04:44:50.988Z,4.80
2019-05-25T04:47:41.808Z,5.30
2019-05-25T04:50:32.265Z,4.85
2019-05-25T04:53:24.103Z,4.90
2019-05-25T04:56:14.655Z,4.05
2019-05-25T04:59:05.205Z,4.35
2019-05-25T05:01:55.693Z,4.60
2019-05-25T05:04:46.519Z,4.45
2019-05-25T05:07:37.236Z,4.20
2019-05-25T05:10:32.932Z,4.10
2019-05-25T05:13:23.486Z,4.20
2019-05-25T05:16:13.858Z,4.37
2019-05-25T05:19:04.398Z,3.87
2019-05-25T05:21:55.020Z,4.10
2019-05-25T05:24:45.571Z,4.10
2019-05-25T05:27:35.891Z,4.40
2019-05-25T05:30:35.488Z,4.23
2019-05-25T05:33:26.188Z,4.60
2019-05-25T05:36:16.596Z,4.40
2019-05-25T05:39:08.689Z,4.30
2019-05-25T05:41:58.950Z,4.73
2019-05-25T05:44:49.747Z,4.78
2019-05-25T05:47:40.941Z,5.12
2019-05-25T05:50:31.805Z,4.90
2019-05-25T05:53:22.732Z,4.75
2019-05-25T05:56:13.742Z,4.70
2019-05-25T05:59:04.376Z,4.47
2019-05-25T06:01:55.088Z,4.40
2019-05-25T06:04:45.687Z,4.33
2019-05-25T06:07:36.021Z,4.77
2019-05-25T06:10:26.274Z,4.47
2019-05-25T06:13:17.825Z,4.50
2019-05-25T06:16:08.513Z,4.73
2019-05-25T06:18:59.083Z,4.70
2019-05-25T06:21:49.413Z,4.30
2019-05-25T06:24:40.023Z,4.57
2019-05-25T06:27:30.295Z,4.50
2019-05-25T06:30:20.831Z,4.63
2019-05-25T06:33:11.539Z,5.00
2019-05-25T06:36:03.134Z,4.60
2019-05-25T06:38:53.716Z,4.13
2019-05-25T06:41:44.277Z,4.40
2019-05-25T06:44:34.561Z,4.80
2019-05-25T06:47:25.429Z,4.50
2019-05-25T06:50:16.144Z,4.53
2019-05-25T06:53:07.068Z,4.47
2019-05-25T06:55:57.550Z,4.67
2019-05-25T06:58:48.760Z,4.50
2019-05-25T07:01:39.210Z,4.83
2019-05-25T07:04:30.078Z,5.03
2019-05-25T07:07:20.617Z,4.30
2019-05-25T07:10:10.980Z,4.40
2019-05-25T07:13:01.421Z,4.60
2019-05-25T07:15:52.205Z,4.40
2019-05-25T07:18:42.928Z,4.13
2019-05-25T07:21:33.327Z,4.50
2019-05-25T07:24:23.893Z,4.30
2019-05-25T07:27:14.566Z,4.20
2019-05-25T07:30:05.338Z,4.47
2019-05-25T07:32:55.932Z,4.53
2019-05-25T07:35:46.457Z,4.30
2019-05-25T07:38:36.812Z,4.30
2019-05-25T07:41:27.295Z,4.70
2019-05-25T07:44:17.676Z,4.30
2019-05-25T07:47:08.490Z,4.27
2019-05-25T07:49:59.287Z,4.67
2019-05-25T07:52:49.803Z,4.60
2019-05-25T07:55:40.661Z,4.55
2019-05-25T07:58:31.946Z,4.22
2019-05-25T08:01:22.784Z,4.53
2019-05-25T08:04:13.569Z,4.83
2019-05-25T08:07:04.494Z,4.90
2019-05-25T08:09:55.388Z,4.60
2019-05-25T08:12:46.236Z,5.00
2019-05-25T08:15:38.571Z,5.70
2019-05-25T08:18:30.358Z,5.20
2019-05-25T08:21:21.236Z,5.03
2019-05-25T08:24:12.085Z,5.17
2019-05-25T08:27:02.950Z,4.92
2019-05-25T08:29:53.979Z,4.97
2019-05-25T08:32:44.975Z,4.87
2019-05-25T08:35:35.601Z,4.85
2019-05-25T08:38:26.576Z,4.72
2019-05-25T08:41:17.556Z,5.30
2019-05-25T08:44:08.547Z,4.92
2019-05-25T08:46:59.451Z,5.17
2019-05-25T08:49:50.181Z,5.10
2019-05-25T08:52:41.072Z,5.47
2019-05-25T08:55:31.813Z,4.85
2019-05-25T08:58:22.351Z,4.67
2019-05-25T09:01:12.899Z,4.85
2019-05-25T09:04:03.734Z,4.60
2019-05-25T09:06:54.513Z,4.30
2019-05-25T09:09:45.412Z,4.15
2019-05-25T09:12:36.039Z,3.98
2019-05-25T09:15:26.750Z,3.20
2019-05-25T09:18:17.689Z,3.80
2019-05-25T09:21:09.144Z,3.65
2019-05-25T09:23:59.850Z,3.00
2019-05-25T09:26:50.712Z,2.40
2019-05-25T09:29:41.221Z,2.70
2019-05-25T09:32:32.090Z,3.00
2019-05-25T09:35:22.898Z,3.30
2019-05-25T09:38:13.765Z,3.67
2019-05-25T09:41:04.562Z,3.42
2019-05-25T09:43:55.383Z,2.87
2019-05-25T09:46:46.243Z,3.37
2019-05-25T09:49:37.128Z,2.45
2019-05-25T09:52:27.788Z,2.72
2019-05-25T09:55:18.693Z,3.10
2019-05-25T09:58:09.477Z,2.90
2019-05-25T10:01:00.550Z,2.98
2019-05-25T10:03:51.524Z,3.00
2019-05-25T10:06:42.614Z,2.90
2019-05-25T10:09:33.551Z,2.80
2019-05-25T10:12:24.590Z,2.50
2019-05-25T10:15:15.581Z,2.20
2019-05-25T10:18:06.449Z,2.35
2019-05-25T10:20:57.276Z,2.45
2019-05-25T10:23:48.279Z,2.10
2019-05-25T10:26:38.980Z,2.55
2019-05-25T10:29:37.268Z,2.80
2019-05-25T10:32:22.213Z,2.80
2019-05-25T10:35:13.184Z,3.05
2019-05-25T10:38:04.437Z,3.20
2019-05-25T10:40:58.383Z,2.35
2019-05-25T10:43:47.702Z,2.62
2019-05-25T10:46:38.566Z,2.20
2019-05-25T10:49:30.386Z,2.60
2019-05-25T10:52:21.379Z,2.77
2019-05-25T10:55:12.199Z,3.00
2019-05-25T10:58:03.101Z,3.45
2019-05-25T11:00:53.738Z,3.90
2019-05-25T11:03:44.871Z,4.28
2019-05-25T11:06:35.811Z,4.12
2019-05-25T11:09:26.797Z,4.10
2019-05-25T11:12:17.275Z,4.08
2019-05-25T11:15:08.158Z,4.15
2019-05-25T11:17:58.874Z,3.70
2019-05-25T11:20:49.797Z,3.25
2019-05-25T11:23:40.667Z,3.87
2019-05-25T11:26:31.580Z,3.62
2019-05-25T11:29:22.439Z,3.55
2019-05-25T11:32:13.339Z,3.42
2019-05-25T11:35:04.154Z,3.30
2019-05-25T11:37:55.078Z,3.90
2019-05-25T11:40:45.675Z,3.50
2019-05-25T11:43:36.674Z,3.30
2019-05-25T11:46:27.592Z,3.50
2019-05-25T11:49:22.663Z,3.65
2019-05-25T11:52:10.951Z,3.60
2019-05-25T11:55:02.035Z,3.60
2019-05-25T11:57:52.908Z,3.60
2019-05-25T12:00:43.490Z,3.60
2019-05-25T12:03:34.196Z,3.33
2019-05-25T12:06:24.938Z,3.47
2019-05-25T12:09:15.503Z,3.90
2019-05-25T12:12:06.136Z,3.52
2019-05-25T12:14:56.673Z,3.37
2019-05-25T12:17:47.312Z,3.70
2019-05-25T12:20:37.852Z,3.42
2019-05-25T12:23:28.785Z,3.72
2019-05-25T12:26:19.684Z,3.52
2019-05-25T12:29:10.672Z,3.45
2019-05-25T12:32:04.464Z,3.67
2019-05-25T13:00:21.947Z,3.60
2019-05-25T13:03:12.661Z,3.52
2019-05-25T13:06:03.637Z,3.47
2019-05-25T13:08:54.464Z,3.33
2019-05-25T13:11:45.467Z,3.20
2019-05-25T13:14:36.116Z,3.50
2019-05-25T13:17:26.966Z,3.25
2019-05-25T13:20:18.791Z,3.52
2019-05-25T13:23:09.346Z,3.17
2019-05-25T13:26:00.178Z,2.92
2019-05-25T13:28:51.050Z,3.20
2019-05-25T13:31:41.907Z,2.98
2019-05-25T13:34:32.699Z,2.70
2019-05-25T13:37:23.518Z,2.17
2019-05-25T13:40:14.445Z,2.27
2019-05-25T13:43:05.375Z,2.80
2019-05-25T13:45:56.423Z,2.35
2019-05-25T13:48:47.324Z,2.70
2019-05-25T13:51:38.103Z,3.22
2019-05-25T13:54:28.899Z,3.30
2019-05-25T13:57:19.885Z,3.10
2019-05-25T14:00:10.586Z,3.70
2019-05-25T14:03:01.484Z,3.30
2019-05-25T14:05:52.272Z,3.00
2019-05-25T14:08:43.112Z,2.80
2019-05-25T14:11:33.880Z,3.20
2019-05-25T14:14:24.792Z,3.35
2019-05-25T14:17:15.392Z,3.47
2019-05-25T14:20:06.534Z,3.20
2019-05-25T14:22:57.262Z,3.30
2019-05-25T14:25:48.142Z,3.40
2019-05-25T14:28:39.197Z,3.30
2019-05-25T14:31:44.480Z,3.08
2019-05-25T14:34:22.571Z,3.65
2019-05-25T14:37:13.833Z,3.40
2019-05-25T14:40:05.176Z,2.75
2019-05-25T14:42:56.058Z,3.10
2019-05-25T14:45:46.843Z,2.90
2019-05-25T14:48:37.555Z,3.00
2019-05-25T14:51:28.407Z,3.60
2019-05-25T14:54:19.122Z,3.22
2019-05-25T14:57:09.847Z,3.60
2019-05-25T15:00:00.467Z,3.50
2019-05-25T15:02:51.329Z,3.40
2019-05-25T15:05:42.315Z,3.70
2019-05-25T15:08:33.103Z,3.65
2019-05-25T15:11:23.999Z,3.50
2019-05-25T15:14:14.783Z,3.83
2019-05-25T15:17:05.886Z,3.75
2019-05-25T15:19:56.870Z,3.95
2019-05-25T15:22:48.067Z,4.37
2019-05-25T15:25:38.935Z,4.22
2019-05-25T15:28:29.864Z,3.90
2019-05-25T15:31:20.642Z,3.80
2019-05-25T15:34:11.287Z,4.12
2019-05-25T15:37:01.974Z,4.40
2019-05-25T15:39:52.753Z,4.20
2019-05-25T15:42:43.555Z,4.42
2019-05-25T15:45:34.449Z,4.33
2019-05-25T15:48:26.397Z,4.30
2019-05-25T15:51:17.407Z,4.87
2019-05-25T15:54:10.716Z,4.20
2019-05-25T15:57:00.962Z,4.62
2019-05-25T15:59:51.910Z,4.30
2019-05-25T16:02:42.813Z,4.00
2019-05-25T16:05:34.670Z,4.75
2019-05-25T16:08:25.044Z,4.57
2019-05-25T16:11:15.515Z,4.50
2019-05-25T16:14:07.810Z,5.13
2019-05-25T16:16:57.961Z,4.73
2019-05-25T16:19:48.534Z,4.40
2019-05-25T16:22:38.669Z,4.73
2019-05-25T16:25:29.001Z,4.57
2019-05-25T16:28:19.163Z,4.70
2019-05-25T16:31:09.380Z,4.37
2019-05-25T16:33:59.662Z,4.60
2019-05-25T16:36:50.009Z,4.70
2019-05-25T16:39:40.523Z,4.60
2019-05-25T16:42:30.628Z,4.70
2019-05-25T16:45:20.996Z,4.90
2019-05-25T16:48:11.427Z,4.60
2019-05-25T16:51:01.623Z,4.33
2019-05-25T16:53:51.837Z,4.40
2019-05-25T16:56:42.131Z,4.33
2019-05-25T16:59:32.216Z,4.33
2019-05-25T17:02:22.363Z,4.30
2019-05-25T17:05:14.201Z,4.40
2019-05-25T17:08:04.320Z,4.70
2019-05-25T17:10:54.553Z,4.57
2019-05-25T17:13:44.641Z,4.40
2019-05-25T17:16:34.996Z,4.63
2019-05-25T17:19:25.227Z,4.60
2019-05-25T17:22:15.478Z,4.90
2019-05-25T17:25:06.132Z,4.63
2019-05-25T17:27:56.144Z,4.80
2019-05-25T17:30:46.723Z,4.40
2019-05-25T17:33:46.013Z,5.20
2019-05-25T17:36:28.504Z,4.67
2019-05-25T17:39:18.649Z,4.40
2019-05-25T17:42:08.914Z,5.03
2019-05-25T17:44:59.369Z,4.60
2019-05-25T17:47:49.703Z,4.80
2019-05-25T17:50:39.739Z,5.03
2019-05-25T17:53:31.102Z,4.87
2019-05-25T17:56:21.486Z,5.13
2019-05-25T17:59:11.824Z,5.10
2019-05-25T18:02:01.856Z,4.83
2019-05-25T18:04:51.877Z,5.20
2019-05-25T18:07:42.067Z,5.13
2019-05-25T18:10:32.148Z,5.03
2019-05-25T18:13:22.535Z,5.20
2019-05-25T18:16:12.544Z,4.93
2019-05-25T18:19:02.853Z,4.63
2019-05-25T18:21:53.052Z,5.37
2019-05-25T18:24:43.256Z,5.20
2019-05-25T18:27:33.244Z,5.43
2019-05-25T18:30:23.646Z,5.50
2019-05-25T18:33:13.882Z,5.07
2019-05-25T18:36:04.135Z,5.50
2019-05-25T18:38:54.499Z,5.17
2019-05-25T18:41:44.991Z,4.80
2019-05-25T18:44:35.293Z,5.00
2019-05-25T18:47:25.348Z,5.20
2019-05-25T18:50:18.753Z,5.30
2019-05-25T18:53:08.940Z,5.13
2019-05-25T18:55:59.250Z,5.23
2019-05-25T18:58:49.722Z,5.50
2019-05-25T19:01:39.924Z,5.77
2019-05-25T19:04:43.363Z,5.40
2019-05-25T19:07:21.570Z,5.70
2019-05-25T19:10:11.940Z,6.00
2019-05-25T19:13:01.980Z,6.00
2019-05-25T19:15:52.471Z,5.97
2019-05-25T19:18:42.850Z,6.20
2019-05-25T19:21:34.265Z,6.33
2019-05-25T19:24:24.198Z,6.93
2019-05-25T19:27:14.420Z,6.30
2019-05-25T19:30:04.708Z,6.60
2019-05-25T19:32:55.021Z,6.27
2019-05-25T19:35:46.241Z,6.00
2019-05-25T19:38:36.480Z,5.80
2019-05-25T19:41:26.699Z,5.97
2019-05-25T19:44:17.112Z,5.93
2019-05-25T19:47:07.602Z,6.00
2019-05-25T19:49:58.030Z,6.13
2019-05-25T19:52:48.201Z,6.00
2019-05-25T19:55:38.243Z,6.50
2019-05-25T19:58:28.376Z,6.60
2019-05-25T20:01:18.463Z,6.43
2019-05-25T20:04:08.725Z,6.67
2019-05-25T20:06:58.852Z,6.90
2019-05-25T20:09:48.807Z,6.47
2019-05-25T20:12:40.179Z,6.70
2019-05-25T20:15:30.243Z,6.83
2019-05-25T20:18:20.598Z,6.37
2019-05-25T20:21:10.654Z,7.17
2019-05-25T20:24:00.680Z,6.50
2019-05-25T20:26:51.888Z,6.10
2019-05-25T20:29:42.189Z,6.37
2019-05-25T20:32:32.374Z,6.10
2019-05-25T20:35:32.225Z,6.03
2019-05-25T20:38:14.304Z,6.43
2019-05-25T20:41:04.617Z,6.23
2019-05-25T20:43:55.852Z,6.93
2019-05-25T20:46:46.158Z,5.87
2019-05-25T20:49:36.636Z,6.47
2019-05-25T20:52:26.755Z,5.83
2019-05-25T20:55:16.936Z,6.20
2019-05-25T20:58:07.385Z,5.93
2019-05-25T21:00:57.563Z,6.07
2019-05-25T21:03:48.907Z,6.30
2019-05-25T21:06:38.917Z,6.23
2019-05-25T21:09:29.253Z,6.50
2019-05-25T21:12:19.243Z,6.87
2019-05-25T21:15:09.677Z,6.97
2019-05-25T21:17:59.928Z,7.30
2019-05-25T21:20:50.329Z,7.00
2019-05-25T21:23:41.616Z,7.17
2019-05-25T21:26:31.860Z,7.57
2019-05-25T21:29:22.056Z,7.20
2019-05-25T21:32:12.361Z,7.60
2019-05-25T21:35:02.380Z,8.10
2019-05-25T21:37:52.673Z,7.73
2019-05-25T21:40:42.936Z,7.80
2019-05-25T21:43:33.241Z,7.80
2019-05-25T21:46:23.447Z,7.87
2019-05-25T21:49:13.971Z,7.67
2019-05-25T21:52:04.296Z,8.00
2019-05-25T21:54:54.559Z,8.23
2019-05-25T21:57:44.798Z,7.97
2019-05-25T22:00:37.801Z,7.73
2019-05-25T22:03:27.776Z,7.90
2019-05-25T22:06:24.415Z,8.23
2019-05-25T22:09:09.897Z,7.80
2019-05-25T22:11:59.840Z,8.00
2019-05-25T22:14:49.993Z,7.93
2019-05-25T22:17:40.725Z,7.87
2019-05-25T22:20:30.960Z,7.90
2019-05-25T22:23:21.592Z,7.50
2019-05-25T22:26:11.750Z,8.07
2019-05-25T22:29:01.916Z,6.83
2019-05-25T22:31:52.140Z,7.10
2019-05-25T22:34:42.193Z,7.60
2019-05-25T22:37:32.212Z,7.97
2019-05-25T22:40:22.449Z,7.60
2019-05-25T22:43:12.431Z,6.90
2019-05-25T22:46:02.517Z,7.10
2019-05-25T22:48:52.957Z,7.10
2019-05-25T22:51:43.315Z,7.10
2019-05-25T22:54:33.452Z,6.97
2019-05-25T22:57:23.838Z,6.87
2019-05-25T23:00:15.180Z,6.47
2019-05-25T23:03:05.427Z,6.90
2019-05-25T23:05:55.454Z,6.93
2019-05-25T23:08:45.802Z,6.97
2019-05-25T23:11:36.080Z,6.73
2019-05-25T23:14:26.247Z,6.67
2019-05-25T23:17:16.353Z,6.97
2019-05-25T23:20:07.001Z,7.03
2019-05-25T23:22:57.266Z,7.10
2019-05-25T23:25:47.257Z,6.53
2019-05-25T23:28:37.488Z,7.10
2019-05-25T23:31:27.794Z,6.73
2019-05-25T23:34:17.823Z,6.87
2019-05-25T23:37:14.660Z,7.03
2019-05-25T23:39:59.602Z,6.80
2019-05-25T23:42:49.844Z,6.87
2019-05-25T23:45:40.106Z,6.80
2019-05-25T23:48:30.562Z,6.90
2019-05-25T23:51:20.991Z,7.03
2019-05-25T23:54:11.258Z,6.43
2019-05-25T23:57:01.540Z,6.77
2019-05-25T23:59:51.722Z,6.77
